East Ridge, Tennessee
Current Conditions -  °F | °C
As of 8:53 PM on Friday 19 Dec 2014 (Local Time) from KCHA Reporting Station
Broken Clouds Broken Clouds  
Wind Chill: 39°   Ceiling: 13000
Heat Index: 43°   Visibility: 10mi
Dew Point: 29°   Wind: 6mph
Humidity: 58%   Direction: 10°N
Pressure: 30.18"   Gusts: NA
Location:  35°N, 85.24°W
Report Text: KCHA 200153Z 01005KT 10SM BKN130 BKN200 BKN250 06/M02 A3018 RMK AO2 SLP223 T00611017
Loading
Personal Weather Stations






























Interactive Weather Map New forecast layout! Learn more

10-Day Weather Forecast

Advertisements
Track Severe Weather on mobile